createdAt,value
2022-12-26T00:00:31.971Z,59.27
2022-12-26T00:02:58.677Z,57.73
2022-12-26T00:05:25.265Z,57.33
2022-12-26T00:07:51.999Z,58.87
2022-12-26T00:10:18.690Z,58.37
2022-12-26T00:12:45.572Z,59.40
2022-12-26T00:15:12.195Z,65.37
2022-12-26T00:17:38.767Z,55.53
2022-12-26T00:20:05.850Z,63.83
2022-12-26T00:22:32.357Z,59.40
2022-12-26T00:24:58.936Z,63.87
2022-12-26T00:27:25.424Z,65.07
2022-12-26T00:29:51.903Z,66.70
2022-12-26T00:32:18.927Z,66.00
2022-12-26T00:34:45.719Z,63.17
2022-12-26T00:37:12.166Z,64.20
2022-12-26T00:39:38.627Z,62.43
2022-12-26T00:42:05.268Z,59.70
2022-12-26T00:44:31.840Z,65.80
2022-12-26T00:46:58.454Z,61.93
2022-12-26T00:49:25.259Z,73.63
2022-12-26T00:51:51.753Z,67.20
2022-12-26T00:54:20.402Z,68.57
2022-12-26T00:56:47.242Z,66.20
2022-12-26T00:59:13.720Z,72.27
2022-12-26T01:01:40.344Z,63.77
2022-12-26T01:04:07.090Z,70.93
2022-12-26T01:06:33.529Z,71.50
2022-12-26T01:09:00.116Z,75.03
2022-12-26T01:11:42.102Z,74.63
2022-12-26T01:14:14.021Z,75.83
2022-12-26T01:16:42.179Z,69.83
2022-12-26T01:19:08.927Z,74.00
2022-12-26T01:21:35.645Z,71.80
2022-12-26T01:24:02.110Z,69.70
2022-12-26T01:26:28.658Z,75.43
2022-12-26T01:28:55.298Z,77.67
2022-12-26T01:31:22.908Z,68.03
2022-12-26T01:33:49.792Z,71.37
2022-12-26T01:36:17.147Z,72.23
2022-12-26T01:38:43.977Z,79.53
2022-12-26T01:41:17.413Z,74.07
2022-12-26T01:43:51.502Z,69.53
2022-12-26T01:46:22.394Z,67.23
2022-12-26T01:48:49.071Z,70.97
2022-12-26T01:51:15.763Z,62.83
2022-12-26T01:53:50.551Z,67.30
2022-12-26T01:56:30.726Z,72.30
2022-12-26T01:59:22.312Z,69.53
2022-12-26T02:01:51.204Z,64.50
2022-12-26T02:04:41.082Z,68.63
2022-12-26T02:07:07.709Z,70.03
2022-12-26T02:09:34.525Z,67.97
2022-12-26T02:12:36.080Z,58.00
2022-12-26T02:15:04.139Z,64.90
2022-12-26T02:17:30.759Z,62.13
2022-12-26T02:20:16.633Z,63.33
2022-12-26T02:23:20.524Z,60.07
2022-12-26T02:26:17.078Z,62.27
2022-12-26T02:28:46.709Z,61.63
2022-12-26T02:31:20.109Z,61.87
2022-12-26T02:34:14.071Z,63.30
2022-12-26T02:37:05.471Z,63.33
2022-12-26T02:39:44.154Z,77.27
2022-12-26T02:42:40.210Z,72.57
2022-12-26T02:45:31.706Z,75.13
2022-12-26T02:48:14.616Z,82.47
2022-12-26T02:51:51.299Z,83.97
2022-12-26T02:55:02.432Z,85.80
2022-12-26T02:57:54.382Z,88.53
2022-12-26T03:00:40.116Z,86.73
2022-12-26T03:03:37.170Z,83.80
2022-12-26T03:06:25.580Z,87.33
2022-12-26T03:09:19.695Z,97.73
2022-12-26T03:12:08.456Z,95.87
2022-12-26T03:15:01.646Z,96.40
2022-12-26T03:17:40.671Z,89.17
2022-12-26T03:20:27.061Z,97.80
2022-12-26T03:22:59.206Z,93.03
2022-12-26T03:25:46.864Z,103.33
2022-12-26T03:28:13.874Z,95.53
2022-12-26T03:30:50.202Z,99.20
2022-12-26T03:33:38.906Z,94.27
2022-12-26T03:36:06.306Z,93.33
2022-12-26T03:38:51.324Z,91.33
2022-12-26T03:41:46.302Z,92.20
2022-12-26T03:45:04.597Z,98.30
2022-12-26T03:48:06.349Z,93.60
2022-12-26T03:50:56.864Z,89.07
2022-12-26T03:53:46.235Z,89.60
2022-12-26T03:57:00.544Z,80.30
2022-12-26T03:59:50.637Z,85.73
2022-12-26T04:02:37.077Z,80.27
2022-12-26T04:05:24.059Z,75.07
2022-12-26T04:08:18.219Z,76.23
2022-12-26T04:11:09.073Z,80.80
2022-12-26T04:14:20.832Z,74.77
2022-12-26T04:17:18.005Z,72.07
2022-12-26T04:20:27.002Z,74.83
2022-12-26T04:23:20.515Z,77.03
2022-12-26T04:26:13.634Z,72.27
2022-12-26T04:28:58.914Z,68.97
2022-12-26T04:31:49.179Z,67.33
2022-12-26T04:34:40.786Z,67.20
2022-12-26T04:37:30.533Z,73.57
2022-12-26T04:40:16.555Z,69.93
2022-12-26T04:43:47.225Z,69.03
2022-12-26T04:45:50.053Z,73.93
2022-12-26T04:48:35.091Z,64.90
2022-12-26T04:51:01.753Z,69.27
2022-12-26T04:53:28.300Z,69.27
2022-12-26T04:55:54.735Z,68.07
2022-12-26T04:58:24.438Z,75.63
2022-12-26T05:00:51.334Z,63.50
2022-12-26T05:03:37.028Z,60.87
2022-12-26T05:06:22.495Z,63.23
2022-12-26T05:09:07.680Z,69.10
2022-12-26T05:11:35.413Z,63.17
2022-12-26T05:14:02.124Z,57.97
2022-12-26T05:16:47.791Z,60.60
2022-12-26T05:19:34.901Z,58.20
2022-12-26T05:22:20.837Z,60.27
2022-12-26T05:25:05.790Z,54.13
2022-12-26T05:28:02.560Z,53.33
2022-12-26T05:30:29.185Z,52.93
2022-12-26T05:33:14.194Z,55.60
2022-12-26T05:35:40.979Z,51.03
2022-12-26T05:38:10.345Z,46.83
2022-12-26T05:40:37.113Z,52.50
2022-12-26T05:43:03.608Z,46.40
2022-12-26T05:45:30.133Z,48.53
2022-12-26T05:48:00.455Z,46.83
2022-12-26T05:50:27.607Z,49.73
2022-12-26T05:52:56.834Z,44.97
2022-12-26T05:55:24.533Z,44.90
2022-12-26T05:57:51.374Z,42.27
2022-12-26T06:00:18.074Z,40.90
2022-12-26T06:02:44.996Z,41.33
2022-12-26T06:05:11.730Z,41.67
2022-12-26T06:07:38.383Z,40.43
2022-12-26T06:10:06.619Z,42.10
2022-12-26T06:12:34.293Z,37.73
2022-12-26T06:15:01.300Z,38.73
2022-12-26T06:17:27.999Z,38.80
2022-12-26T06:19:54.499Z,38.30
2022-12-26T06:22:21.015Z,35.20
2022-12-26T06:24:47.606Z,34.80
2022-12-26T06:27:14.188Z,37.43
2022-12-26T06:29:40.785Z,37.00
2022-12-26T06:32:07.329Z,34.63
2022-12-26T06:34:33.801Z,32.23
2022-12-26T06:37:00.463Z,39.17
2022-12-26T06:39:27.073Z,33.03
2022-12-26T06:41:53.745Z,32.10
2022-12-26T06:44:20.408Z,38.50
2022-12-26T06:46:47.139Z,33.83
2022-12-26T06:49:13.690Z,37.80
2022-12-26T06:51:41.000Z,37.40
2022-12-26T06:54:07.606Z,39.23
2022-12-26T06:56:34.330Z,40.17
2022-12-26T06:59:05.413Z,41.90
2022-12-26T07:01:33.623Z,36.10
2022-12-26T07:04:01.243Z,37.73
2022-12-26T07:06:36.369Z,38.90
2022-12-26T07:09:14.175Z,44.23
2022-12-26T07:11:42.765Z,38.63
2022-12-26T07:14:09.372Z,40.00
2022-12-26T07:16:36.994Z,40.50
2022-12-26T07:19:04.450Z,40.80
2022-12-26T07:21:36.293Z,39.63
2022-12-26T07:24:07.370Z,38.40
2022-12-26T07:26:33.935Z,42.83
2022-12-26T07:29:00.396Z,41.00
2022-12-26T07:31:30.509Z,37.63
2022-12-26T07:33:57.171Z,33.60
2022-12-26T07:36:25.369Z,42.60
2022-12-26T07:38:52.308Z,40.33
2022-12-26T07:41:37.889Z,34.33
2022-12-26T07:44:06.003Z,36.63
2022-12-26T07:46:33.336Z,33.50
2022-12-26T07:48:59.956Z,34.97
2022-12-26T07:51:26.845Z,36.97
2022-12-26T07:53:53.597Z,34.00
2022-12-26T07:56:23.064Z,36.70
2022-12-26T07:58:50.047Z,32.43
2022-12-26T08:01:17.027Z,34.33
2022-12-26T08:03:43.865Z,40.50
2022-12-26T08:06:11.749Z,33.40
2022-12-26T08:08:38.507Z,35.97
2022-12-26T08:11:06.722Z,33.53
2022-12-26T08:13:33.732Z,38.17
2022-12-26T08:16:04.928Z,36.93
2022-12-26T08:18:31.445Z,33.10
2022-12-26T08:20:58.934Z,35.30
2022-12-26T08:23:25.499Z,34.27
2022-12-26T08:25:52.018Z,37.47
2022-12-26T08:28:19.936Z,34.93
2022-12-26T08:30:46.772Z,39.00
2022-12-26T08:33:13.318Z,35.53
2022-12-26T08:35:40.443Z,33.10
2022-12-26T08:38:08.211Z,34.17
2022-12-26T08:40:43.481Z,32.90
2022-12-26T08:43:31.914Z,35.70
2022-12-26T08:46:05.512Z,34.00
2022-12-26T08:48:32.129Z,36.40
2022-12-26T08:51:04.694Z,35.90
2022-12-26T08:53:33.250Z,43.87
2022-12-26T08:55:59.917Z,36.40
2022-12-26T08:58:27.641Z,39.30
2022-12-26T09:00:55.524Z,42.33
2022-12-26T09:03:22.797Z,40.60
2022-12-26T09:05:49.424Z,33.23
2022-12-26T09:08:15.968Z,35.33
2022-12-26T09:10:42.462Z,43.07
2022-12-26T09:13:08.953Z,36.43
2022-12-26T09:15:35.672Z,40.00
2022-12-26T09:18:02.299Z,40.47
2022-12-26T09:20:28.853Z,36.13
2022-12-26T09:22:55.736Z,38.40
2022-12-26T09:25:25.114Z,37.67
2022-12-26T09:27:58.762Z,36.17
2022-12-26T09:30:25.972Z,39.90
2022-12-26T09:32:53.131Z,45.33
2022-12-26T09:35:22.591Z,40.77
2022-12-26T09:37:49.101Z,37.80
2022-12-26T09:40:24.712Z,34.27
2022-12-26T09:43:04.311Z,41.67
2022-12-26T09:45:43.604Z,35.57
2022-12-26T09:48:14.273Z,40.00
2022-12-26T09:50:43.265Z,36.47
2022-12-26T09:53:15.981Z,35.87
2022-12-26T09:56:01.342Z,37.63
2022-12-26T09:58:41.504Z,36.40
2022-12-26T10:01:20.718Z,40.50
2022-12-26T10:03:52.968Z,37.07
2022-12-26T10:06:20.638Z,37.10
2022-12-26T10:08:58.220Z,36.97
2022-12-26T10:11:35.179Z,36.83
2022-12-26T10:14:33.915Z,44.83
2022-12-26T10:17:14.762Z,38.23
2022-12-26T10:19:53.269Z,38.37
2022-12-26T10:22:34.958Z,33.37
2022-12-26T10:25:03.734Z,36.07
2022-12-26T10:27:39.887Z,39.20
2022-12-26T10:30:07.690Z,34.13
2022-12-26T10:32:39.737Z,40.97
2022-12-26T10:35:21.073Z,38.47
2022-12-26T10:37:48.344Z,36.53
2022-12-26T10:40:23.335Z,33.27
2022-12-26T10:42:54.160Z,37.13
2022-12-26T10:45:29.932Z,38.10
2022-12-26T10:47:56.736Z,36.90
2022-12-26T10:50:27.905Z,33.63
2022-12-26T10:52:55.281Z,35.97
2022-12-26T10:55:31.409Z,34.20
2022-12-26T10:58:21.826Z,36.53
2022-12-26T11:00:48.573Z,31.60
2022-12-26T11:03:17.510Z,44.63
2022-12-26T11:06:09.095Z,37.60
2022-12-26T11:08:47.208Z,31.10
2022-12-26T11:11:45.529Z,35.33
2022-12-26T11:14:34.053Z,31.87
2022-12-26T11:17:08.589Z,34.70
2022-12-26T11:19:38.471Z,35.43
2022-12-26T11:22:27.588Z,34.27
2022-12-26T11:25:09.283Z,30.23
2022-12-26T11:27:44.536Z,28.17
2022-12-26T11:30:13.791Z,29.87
2022-12-26T11:32:42.210Z,27.90
2022-12-26T11:35:28.307Z,30.43
2022-12-26T11:37:57.399Z,26.60
2022-12-26T11:40:35.001Z,20.17
2022-12-26T11:43:04.446Z,24.63
2022-12-26T11:45:38.607Z,19.60
2022-12-26T11:48:09.237Z,24.10
2022-12-26T11:50:44.684Z,27.17
2022-12-26T11:53:17.669Z,24.17
2022-12-26T11:55:45.029Z,19.00
2022-12-26T11:58:29.553Z,21.10
2022-12-26T12:00:59.124Z,25.23
2022-12-26T12:03:32.650Z,20.23
2022-12-26T12:06:17.171Z,20.30
2022-12-26T12:09:03.832Z,19.13
2022-12-26T12:11:41.006Z,17.90
2022-12-26T12:14:10.933Z,20.30
2022-12-26T12:17:05.281Z,19.23
2022-12-26T12:19:50.271Z,26.20
2022-12-26T12:22:33.386Z,25.97
2022-12-26T12:25:24.580Z,21.10
2022-12-26T12:28:07.121Z,33.30
2022-12-26T12:30:42.845Z,20.43
2022-12-26T12:33:15.585Z,23.03
2022-12-26T12:36:03.268Z,19.80
2022-12-26T12:38:35.433Z,22.60
2022-12-26T12:41:20.297Z,27.03
2022-12-26T12:44:20.009Z,21.00
2022-12-26T12:47:24.225Z,28.37
2022-12-26T12:50:08.572Z,21.07
2022-12-26T12:52:55.214Z,23.73
2022-12-26T12:55:46.831Z,21.37
2022-12-26T12:58:52.371Z,24.13
2022-12-26T13:01:33.748Z,25.33
2022-12-26T13:04:14.653Z,24.03
2022-12-26T13:06:45.003Z,23.63
2022-12-26T13:09:28.840Z,24.67
2022-12-26T13:12:02.196Z,25.27
2022-12-26T13:14:56.530Z,23.47
2022-12-26T13:17:31.810Z,25.20
2022-12-26T13:20:03.061Z,27.77
2022-12-26T13:23:01.279Z,26.87
2022-12-26T13:25:32.515Z,25.77
2022-12-26T13:28:09.486Z,22.47
2022-12-26T13:30:37.519Z,21.83
2022-12-26T13:33:05.012Z,26.93
2022-12-26T13:35:55.217Z,22.80
2022-12-26T13:38:22.932Z,24.90
2022-12-26T13:41:21.010Z,28.93
2022-12-26T13:44:24.884Z,24.17
2022-12-26T13:46:51.417Z,24.67
2022-12-26T13:49:28.256Z,22.63
2022-12-26T13:52:00.428Z,22.30
2022-12-26T13:54:39.204Z,22.40
2022-12-26T13:57:25.998Z,21.97
2022-12-26T14:00:08.032Z,22.60
2022-12-26T14:03:18.577Z,21.23
2022-12-26T14:06:04.910Z,20.10
2022-12-26T14:08:55.554Z,24.53
2022-12-26T14:11:49.682Z,26.77
2022-12-26T14:14:37.457Z,22.13
2022-12-26T14:17:06.713Z,28.13
2022-12-26T14:19:44.132Z,24.53
2022-12-26T14:22:22.979Z,21.33
2022-12-26T14:25:27.095Z,18.60
2022-12-26T14:28:14.607Z,20.13
2022-12-26T14:31:04.176Z,21.57
2022-12-26T14:33:49.243Z,24.50
2022-12-26T14:36:25.965Z,20.70
2022-12-26T14:38:57.369Z,21.00
2022-12-26T14:41:43.115Z,24.17
2022-12-26T14:44:38.436Z,21.33
2022-12-26T14:47:05.724Z,22.07
2022-12-26T14:49:35.677Z,20.67
2022-12-26T14:52:24.425Z,22.20
2022-12-26T14:54:54.601Z,28.00
2022-12-26T14:57:45.764Z,23.67
2022-12-26T15:00:20.922Z,21.87
2022-12-26T15:03:13.193Z,28.70
2022-12-26T15:05:41.970Z,24.80
2022-12-26T15:08:30.463Z,22.43
2022-12-26T15:10:59.862Z,19.07
2022-12-26T15:13:45.644Z,24.63
2022-12-26T15:16:30.821Z,25.87
2022-12-26T15:19:34.989Z,24.60
2022-12-26T15:22:07.631Z,24.50
2022-12-26T15:25:18.875Z,22.80
2022-12-26T15:27:58.055Z,24.90
2022-12-26T15:30:27.526Z,24.53
2022-12-26T15:32:56.638Z,27.67
2022-12-26T15:35:32.176Z,25.03
2022-12-26T15:38:01.503Z,24.50
2022-12-26T15:40:31.677Z,22.57
2022-12-26T15:43:35.361Z,25.73
2022-12-26T15:46:29.319Z,24.63
2022-12-26T15:49:22.150Z,29.27
2022-12-26T15:51:53.868Z,20.20
2022-12-26T15:54:59.860Z,21.23
2022-12-26T15:57:37.618Z,23.97
2022-12-26T16:00:13.098Z,21.83
2022-12-26T16:02:46.800Z,20.87
2022-12-26T16:05:22.907Z,27.80
2022-12-26T16:08:08.423Z,26.67
2022-12-26T16:10:36.149Z,26.87
2022-12-26T16:13:12.254Z,25.67
2022-12-26T16:15:54.861Z,27.77
2022-12-26T16:18:26.565Z,28.80
2022-12-26T16:21:14.432Z,29.53
2022-12-26T16:23:42.396Z,24.40
2022-12-26T16:26:17.872Z,40.80
2022-12-26T16:28:44.686Z,28.87
2022-12-26T16:31:20.223Z,26.17
2022-12-26T16:33:47.498Z,30.57
2022-12-26T16:36:23.207Z,25.47
2022-12-26T16:38:50.553Z,21.57
2022-12-26T16:41:25.492Z,25.80
2022-12-26T16:43:54.349Z,23.77
2022-12-26T18:37:27.037Z,34.90
2022-12-26T18:39:53.712Z,38.20
2022-12-26T18:42:21.637Z,38.37
2022-12-26T18:44:48.187Z,36.57
2022-12-26T18:47:17.582Z,38.27
2022-12-26T18:49:44.966Z,35.00
2022-12-26T18:52:12.281Z,34.27
2022-12-26T18:54:44.154Z,36.00
2022-12-26T18:57:20.695Z,35.03
2022-12-26T18:59:48.243Z,31.67
2022-12-26T19:02:17.360Z,31.20
2022-12-26T19:04:44.678Z,33.37
2022-12-26T19:07:11.287Z,33.97
2022-12-26T19:09:37.837Z,29.23
2022-12-26T19:12:06.161Z,31.03
2022-12-26T19:14:32.688Z,27.90
2022-12-26T19:16:59.588Z,27.73
2022-12-26T19:19:29.428Z,33.43
2022-12-26T19:21:56.395Z,31.07
2022-12-26T19:24:23.208Z,34.30
2022-12-26T19:26:50.156Z,36.73
2022-12-26T19:29:16.935Z,30.70
2022-12-26T19:31:43.619Z,32.23
2022-12-26T19:34:10.545Z,31.83
2022-12-26T19:36:37.556Z,34.97
2022-12-26T19:39:04.694Z,29.50
2022-12-26T19:41:31.852Z,31.03
2022-12-26T19:44:00.282Z,35.80
2022-12-26T19:46:27.758Z,37.30
2022-12-26T19:48:54.964Z,43.03
2022-12-26T19:51:22.160Z,34.77
2022-12-26T19:53:49.560Z,34.87
2022-12-26T19:56:24.489Z,46.27
2022-12-26T19:58:56.153Z,43.50
2022-12-26T20:01:26.988Z,39.40
2022-12-26T20:04:01.957Z,34.77
2022-12-26T20:06:30.400Z,32.33
2022-12-26T20:09:01.438Z,32.90
2022-12-26T20:11:31.403Z,29.70
2022-12-26T20:14:00.086Z,36.10
2022-12-26T20:17:03.844Z,35.00
2022-12-26T20:19:14.373Z,33.47
2022-12-26T20:21:41.047Z,38.73
2022-12-26T20:24:08.103Z,33.57
2022-12-26T20:26:34.712Z,30.03
2022-12-26T20:29:01.959Z,35.27
2022-12-26T20:31:30.657Z,32.13
2022-12-26T20:33:58.502Z,34.53
2022-12-26T20:36:27.413Z,28.07
2022-12-26T20:38:55.992Z,30.93
2022-12-26T20:41:23.208Z,26.40
2022-12-26T20:43:50.404Z,31.60
2022-12-26T20:46:22.472Z,28.83
2022-12-26T20:48:50.147Z,28.73
2022-12-26T20:51:23.130Z,33.17
2022-12-26T20:53:50.824Z,27.83
2022-12-26T20:56:17.560Z,25.73
2022-12-26T20:58:44.740Z,31.27
2022-12-26T21:01:17.394Z,26.33
2022-12-26T21:03:44.412Z,26.40
2022-12-26T21:06:13.843Z,25.17
2022-12-26T21:08:42.253Z,29.43
2022-12-26T21:11:27.152Z,29.30
2022-12-26T21:13:56.403Z,29.80
2022-12-26T21:16:32.867Z,28.53
2022-12-26T21:18:59.672Z,26.27
2022-12-26T21:21:29.906Z,30.23
2022-12-26T21:24:01.165Z,27.67
2022-12-26T21:26:28.598Z,31.30
2022-12-26T21:28:57.054Z,28.43
2022-12-26T21:31:24.006Z,32.90
2022-12-26T21:33:50.688Z,33.80
2022-12-26T21:36:17.314Z,31.13
2022-12-26T21:38:43.924Z,29.23
2022-12-26T21:41:11.759Z,33.27
2022-12-26T21:43:38.369Z,31.10
2022-12-26T21:46:08.362Z,31.67
2022-12-26T21:48:35.583Z,32.93
2022-12-26T21:51:02.060Z,27.50
2022-12-26T21:53:28.700Z,29.20
2022-12-26T21:55:55.240Z,32.67
2022-12-26T21:58:21.744Z,32.83
2022-12-26T22:00:48.170Z,29.97
2022-12-26T22:03:33.159Z,34.97
2022-12-26T22:05:59.898Z,31.70
2022-12-26T22:08:26.354Z,31.03
2022-12-26T22:11:11.260Z,26.27
2022-12-26T22:13:40.886Z,31.73
2022-12-26T22:16:09.601Z,27.33
2022-12-26T22:18:47.132Z,25.07
2022-12-26T22:21:22.020Z,27.20
2022-12-26T22:23:52.481Z,26.73
2022-12-26T22:26:21.468Z,28.90
2022-12-26T22:28:48.199Z,26.60
2022-12-26T22:31:25.937Z,27.67
2022-12-26T22:33:57.123Z,27.83
2022-12-26T22:36:24.376Z,26.30
2022-12-26T22:38:51.117Z,28.83
2022-12-26T22:41:17.724Z,29.67
2022-12-26T22:43:44.614Z,26.60
2022-12-26T22:46:11.676Z,29.07
2022-12-26T22:48:38.338Z,30.10
2022-12-26T22:51:05.191Z,28.27
2022-12-26T22:53:32.146Z,29.47
2022-12-26T22:56:04.701Z,27.27
2022-12-26T22:58:32.276Z,29.67
2022-12-26T23:00:59.530Z,29.77
2022-12-26T23:03:27.206Z,29.17
2022-12-26T23:05:54.522Z,30.57
2022-12-26T23:08:24.674Z,31.77
2022-12-26T23:10:53.005Z,30.23
2022-12-26T23:13:23.151Z,34.37
2022-12-26T23:15:56.514Z,27.90
2022-12-26T23:18:59.284Z,25.10
2022-12-26T23:21:38.570Z,29.50
2022-12-26T23:24:16.225Z,26.40
2022-12-26T23:26:45.655Z,29.30
2022-12-26T23:29:32.724Z,27.87
2022-12-26T23:31:59.374Z,32.27
2022-12-26T23:34:26.605Z,32.43
2022-12-26T23:36:53.280Z,32.53
2022-12-26T23:39:20.365Z,29.70
2022-12-26T23:41:47.052Z,31.17
2022-12-26T23:44:13.780Z,32.60
2022-12-26T23:46:41.270Z,34.73
2022-12-26T23:49:08.203Z,34.47
2022-12-26T23:51:34.716Z,31.90
2022-12-26T23:54:01.532Z,33.90
2022-12-26T23:56:28.146Z,32.43
2022-12-26T23:58:55.260Z,38.23
